sensor_id;sensor_type;location;lat;lon;timestamp;P1;durP1;ratioP1;P2;durP2;ratioP2
68951;SDS011;56000;51.146;17.112;2023-04-25T00:00:20;3.60;;;1.90;;
68951;SDS011;56000;51.146;17.112;2023-04-25T00:03:13;4.60;;;2.30;;
68951;SDS011;56000;51.146;17.112;2023-04-25T00:05:48;2.30;;;1.70;;
68951;SDS011;56000;51.146;17.112;2023-04-25T00:08:22;4.20;;;1.60;;
68951;SDS011;56000;51.146;17.112;2023-04-25T00:10:55;2.80;;;1.90;;
68951;SDS011;56000;51.146;17.112;2023-04-25T00:13:28;2.80;;;2.00;;
68951;SDS011;56000;51.146;17.112;2023-04-25T00:16:02;2.30;;;1.70;;
68951;SDS011;56000;51.146;17.112;2023-04-25T00:18:35;4.50;;;1.70;;
68951;SDS011;56000;51.146;17.112;2023-04-25T00:21:08;3.10;;;1.80;;
68951;SDS011;56000;51.146;17.112;2023-04-25T00:23:41;5.50;;;1.90;;
68951;SDS011;56000;51.146;17.112;2023-04-25T00:26:15;2.30;;;1.90;;
68951;SDS011;56000;51.146;17.112;2023-04-25T00:28:48;2.50;;;1.60;;
68951;SDS011;56000;51.146;17.112;2023-04-25T00:31:21;5.40;;;2.00;;
68951;SDS011;56000;51.146;17.112;2023-04-25T00:33:54;3.50;;;1.60;;
68951;SDS011;56000;51.146;17.112;2023-04-25T00:36:27;2.70;;;1.50;;
68951;SDS011;56000;51.146;17.112;2023-04-25T00:39:01;2.40;;;1.80;;
68951;SDS011;56000;51.146;17.112;2023-04-25T00:41:35;2.60;;;1.80;;
68951;SDS011;56000;51.146;17.112;2023-04-25T00:44:09;3.80;;;1.60;;
68951;SDS011;56000;51.146;17.112;2023-04-25T00:46:44;1.60;;;1.50;;
68951;SDS011;56000;51.146;17.112;2023-04-25T00:49:20;6.50;;;1.80;;
68951;SDS011;56000;51.146;17.112;2023-04-25T00:51:53;3.20;;;1.80;;
68951;SDS011;56000;51.146;17.112;2023-04-25T00:54:27;4.10;;;1.80;;
68951;SDS011;56000;51.146;17.112;2023-04-25T00:57:01;2.40;;;1.80;;
68951;SDS011;56000;51.146;17.112;2023-04-25T00:59:34;1.70;;;1.50;;
68951;SDS011;56000;51.146;17.112;2023-04-25T01:02:08;5.30;;;1.70;;
68951;SDS011;56000;51.146;17.112;2023-04-25T01:04:42;2.30;;;1.50;;
68951;SDS011;56000;51.146;17.112;2023-04-25T01:07:15;2.50;;;1.50;;
68951;SDS011;56000;51.146;17.112;2023-04-25T01:09:49;2.30;;;1.90;;
68951;SDS011;56000;51.146;17.112;2023-04-25T01:12:24;4.10;;;1.80;;
68951;SDS011;56000;51.146;17.112;2023-04-25T01:14:58;3.60;;;1.60;;
68951;SDS011;56000;51.146;17.112;2023-04-25T01:17:31;1.60;;;1.50;;
68951;SDS011;56000;51.146;17.112;2023-04-25T01:20:06;2.20;;;1.40;;
68951;SDS011;56000;51.146;17.112;2023-04-25T01:22:42;2.10;;;2.00;;
68951;SDS011;56000;51.146;17.112;2023-04-25T01:25:15;2.40;;;1.30;;
68951;SDS011;56000;51.146;17.112;2023-04-25T01:27:48;5.20;;;1.50;;
68951;SDS011;56000;51.146;17.112;2023-04-25T01:30:22;3.20;;;1.60;;
68951;SDS011;56000;51.146;17.112;2023-04-25T01:32:57;1.60;;;1.50;;
68951;SDS011;56000;51.146;17.112;2023-04-25T01:35:32;2.20;;;1.50;;
68951;SDS011;56000;51.146;17.112;2023-04-25T01:38:05;2.00;;;1.80;;
68951;SDS011;56000;51.146;17.112;2023-04-25T01:40:40;1.70;;;1.40;;
68951;SDS011;56000;51.146;17.112;2023-04-25T01:43:15;1.50;;;1.40;;
68951;SDS011;56000;51.146;17.112;2023-04-25T01:45:49;1.60;;;1.50;;
68951;SDS011;56000;51.146;17.112;2023-04-25T01:48:22;1.90;;;1.70;;
68951;SDS011;56000;51.146;17.112;2023-04-25T01:50:56;2.30;;;2.00;;
68951;SDS011;56000;51.146;17.112;2023-04-25T01:53:30;3.60;;;2.20;;
68951;SDS011;56000;51.146;17.112;2023-04-25T01:56:06;2.20;;;2.00;;
68951;SDS011;56000;51.146;17.112;2023-04-25T01:58:41;3.20;;;2.30;;
68951;SDS011;56000;51.146;17.112;2023-04-25T02:01:32;3.10;;;2.30;;
68951;SDS011;56000;51.146;17.112;2023-04-25T02:04:15;3.30;;;2.40;;
68951;SDS011;56000;51.146;17.112;2023-04-25T02:06:48;4.60;;;2.50;;
68951;SDS011;56000;51.146;17.112;2023-04-25T02:09:21;3.10;;;2.70;;
68951;SDS011;56000;51.146;17.112;2023-04-25T02:11:57;2.90;;;2.60;;
68951;SDS011;56000;51.146;17.112;2023-04-25T02:14:52;6.00;;;2.60;;
68951;SDS011;56000;51.146;17.112;2023-04-25T02:17:40;3.60;;;2.90;;
68951;SDS011;56000;51.146;17.112;2023-04-25T02:20:15;4.20;;;2.90;;
68951;SDS011;56000;51.146;17.112;2023-04-25T02:22:51;3.50;;;2.60;;
68951;SDS011;56000;51.146;17.112;2023-04-25T02:25:24;3.00;;;2.70;;
68951;SDS011;56000;51.146;17.112;2023-04-25T02:27:58;5.40;;;3.10;;
68951;SDS011;56000;51.146;17.112;2023-04-25T02:30:31;3.20;;;2.60;;
68951;SDS011;56000;51.146;17.112;2023-04-25T02:33:07;4.90;;;2.70;;
68951;SDS011;56000;51.146;17.112;2023-04-25T02:35:40;4.60;;;3.00;;
68951;SDS011;56000;51.146;17.112;2023-04-25T02:38:13;6.00;;;3.30;;
68951;SDS011;56000;51.146;17.112;2023-04-25T02:40:46;4.10;;;3.10;;
68951;SDS011;56000;51.146;17.112;2023-04-25T02:43:20;6.50;;;3.60;;
68951;SDS011;56000;51.146;17.112;2023-04-25T02:45:54;4.10;;;3.30;;
68951;SDS011;56000;51.146;17.112;2023-04-25T02:48:27;4.50;;;3.30;;
68951;SDS011;56000;51.146;17.112;2023-04-25T02:51:00;4.80;;;3.20;;
68951;SDS011;56000;51.146;17.112;2023-04-25T02:53:34;6.20;;;3.70;;
68951;SDS011;56000;51.146;17.112;2023-04-25T02:56:07;6.90;;;3.60;;
68951;SDS011;56000;51.146;17.112;2023-04-25T02:58:40;6.10;;;3.20;;
68951;SDS011;56000;51.146;17.112;2023-04-25T03:01:14;4.40;;;3.20;;
68951;SDS011;56000;51.146;17.112;2023-04-25T03:03:47;7.00;;;3.20;;
68951;SDS011;56000;51.146;17.112;2023-04-25T03:06:21;4.30;;;3.60;;
68951;SDS011;56000;51.146;17.112;2023-04-25T03:08:54;6.60;;;3.70;;
68951;SDS011;56000;51.146;17.112;2023-04-25T03:11:27;8.00;;;4.20;;
68951;SDS011;56000;51.146;17.112;2023-04-25T03:14:01;5.40;;;3.80;;
68951;SDS011;56000;51.146;17.112;2023-04-25T03:16:34;6.60;;;3.90;;
68951;SDS011;56000;51.146;17.112;2023-04-25T03:19:07;7.20;;;4.10;;
68951;SDS011;56000;51.146;17.112;2023-04-25T03:21:40;5.70;;;4.00;;
68951;SDS011;56000;51.146;17.112;2023-04-25T03:24:14;5.50;;;4.00;;
68951;SDS011;56000;51.146;17.112;2023-04-25T03:26:48;7.20;;;4.00;;
68951;SDS011;56000;51.146;17.112;2023-04-25T03:29:21;5.40;;;3.70;;
68951;SDS011;56000;51.146;17.112;2023-04-25T03:31:57;5.90;;;3.60;;
68951;SDS011;56000;51.146;17.112;2023-04-25T03:34:30;6.30;;;4.50;;
68951;SDS011;56000;51.146;17.112;2023-04-25T03:37:03;8.80;;;4.20;;
68951;SDS011;56000;51.146;17.112;2023-04-25T03:39:39;9.90;;;4.30;;
68951;SDS011;56000;51.146;17.112;2023-04-25T03:42:13;6.50;;;4.10;;
68951;SDS011;56000;51.146;17.112;2023-04-25T03:44:46;4.90;;;3.70;;
68951;SDS011;56000;51.146;17.112;2023-04-25T03:47:19;6.30;;;4.20;;
68951;SDS011;56000;51.146;17.112;2023-04-25T03:49:52;6.20;;;3.90;;
68951;SDS011;56000;51.146;17.112;2023-04-25T03:52:25;7.30;;;4.40;;
68951;SDS011;56000;51.146;17.112;2023-04-25T03:54:59;6.20;;;4.30;;
68951;SDS011;56000;51.146;17.112;2023-04-25T03:57:32;13.30;;;4.90;;
68951;SDS011;56000;51.146;17.112;2023-04-25T04:00:07;12.70;;;4.60;;
68951;SDS011;56000;51.146;17.112;2023-04-25T04:02:44;7.10;;;4.60;;
68951;SDS011;56000;51.146;17.112;2023-04-25T04:05:17;8.00;;;5.00;;
68951;SDS011;56000;51.146;17.112;2023-04-25T04:07:56;12.60;;;5.20;;
68951;SDS011;56000;51.146;17.112;2023-04-25T04:10:29;9.20;;;5.00;;
68951;SDS011;56000;51.146;17.112;2023-04-25T04:13:02;9.50;;;5.00;;
68951;SDS011;56000;51.146;17.112;2023-04-25T04:15:35;9.20;;;5.20;;
68951;SDS011;56000;51.146;17.112;2023-04-25T04:18:09;7.60;;;5.00;;
68951;SDS011;56000;51.146;17.112;2023-04-25T04:20:42;11.80;;;5.40;;
68951;SDS011;56000;51.146;17.112;2023-04-25T04:23:15;8.20;;;5.40;;
68951;SDS011;56000;51.146;17.112;2023-04-25T04:25:48;10.60;;;5.10;;
68951;SDS011;56000;51.146;17.112;2023-04-25T04:28:41;9.10;;;5.30;;
68951;SDS011;56000;51.146;17.112;2023-04-25T04:31:23;10.50;;;5.10;;
68951;SDS011;56000;51.146;17.112;2023-04-25T04:33:57;10.60;;;4.80;;
68951;SDS011;56000;51.146;17.112;2023-04-25T04:36:31;9.30;;;5.70;;
68951;SDS011;56000;51.146;17.112;2023-04-25T04:39:07;8.90;;;5.60;;
68951;SDS011;56000;51.146;17.112;2023-04-25T04:41:51;7.80;;;4.90;;
68951;SDS011;56000;51.146;17.112;2023-04-25T04:44:41;9.00;;;4.80;;
68951;SDS011;56000;51.146;17.112;2023-04-25T04:47:46;7.20;;;4.80;;
68951;SDS011;56000;51.146;17.112;2023-04-25T04:50:38;9.10;;;4.80;;
68951;SDS011;56000;51.146;17.112;2023-04-25T04:53:34;7.30;;;4.80;;
68951;SDS011;56000;51.146;17.112;2023-04-25T04:56:16;9.50;;;5.10;;
68951;SDS011;56000;51.146;17.112;2023-04-25T04:58:57;14.10;;;5.00;;
68951;SDS011;56000;51.146;17.112;2023-04-25T05:01:45;6.90;;;4.70;;
68951;SDS011;56000;51.146;17.112;2023-04-25T05:04:18;7.40;;;5.00;;
68951;SDS011;56000;51.146;17.112;2023-04-25T05:07:26;11.30;;;4.60;;
68951;SDS011;56000;51.146;17.112;2023-04-25T05:10:23;9.40;;;5.40;;
68951;SDS011;56000;51.146;17.112;2023-04-25T05:13:20;7.20;;;5.10;;
68951;SDS011;56000;51.146;17.112;2023-04-25T05:16:22;7.40;;;4.80;;
68951;SDS011;56000;51.146;17.112;2023-04-25T05:19:14;8.00;;;4.30;;
68951;SDS011;56000;51.146;17.112;2023-04-25T05:22:10;8.40;;;4.70;;
68951;SDS011;56000;51.146;17.112;2023-04-25T05:24:59;9.90;;;5.40;;
68951;SDS011;56000;51.146;17.112;2023-04-25T05:27:49;10.40;;;4.90;;
68951;SDS011;56000;51.146;17.112;2023-04-25T05:30:32;12.50;;;5.40;;
68951;SDS011;56000;51.146;17.112;2023-04-25T05:33:13;7.20;;;5.00;;
68951;SDS011;56000;51.146;17.112;2023-04-25T05:35:47;7.90;;;4.60;;
68951;SDS011;56000;51.146;17.112;2023-04-25T05:38:20;6.40;;;4.70;;
68951;SDS011;56000;51.146;17.112;2023-04-25T05:41:31;7.80;;;4.70;;
68951;SDS011;56000;51.146;17.112;2023-04-25T05:44:24;10.10;;;4.50;;
68951;SDS011;56000;51.146;17.112;2023-04-25T05:47:17;8.50;;;4.50;;
68951;SDS011;56000;51.146;17.112;2023-04-25T05:50:03;4.80;;;4.00;;
68951;SDS011;56000;51.146;17.112;2023-04-25T05:52:51;9.00;;;4.30;;
68951;SDS011;56000;51.146;17.112;2023-04-25T05:55:45;8.80;;;5.00;;
68951;SDS011;56000;51.146;17.112;2023-04-25T05:58:26;9.90;;;4.80;;
68951;SDS011;56000;51.146;17.112;2023-04-25T06:01:01;8.80;;;4.10;;
68951;SDS011;56000;51.146;17.112;2023-04-25T06:03:35;6.20;;;4.60;;
68951;SDS011;56000;51.146;17.112;2023-04-25T06:06:08;6.40;;;4.60;;
68951;SDS011;56000;51.146;17.112;2023-04-25T06:08:42;7.60;;;4.50;;
68951;SDS011;56000;51.146;17.112;2023-04-25T06:11:16;9.40;;;4.70;;
68951;SDS011;56000;51.146;17.112;2023-04-25T06:13:50;9.90;;;3.90;;
68951;SDS011;56000;51.146;17.112;2023-04-25T06:16:24;8.00;;;4.30;;
68951;SDS011;56000;51.146;17.112;2023-04-25T06:18:57;7.60;;;4.50;;
68951;SDS011;56000;51.146;17.112;2023-04-25T06:21:30;7.90;;;4.10;;
68951;SDS011;56000;51.146;17.112;2023-04-25T06:24:03;6.50;;;4.00;;
68951;SDS011;56000;51.146;17.112;2023-04-25T06:26:37;6.20;;;4.00;;
68951;SDS011;56000;51.146;17.112;2023-04-25T06:29:10;9.40;;;4.30;;
68951;SDS011;56000;51.146;17.112;2023-04-25T06:31:43;9.40;;;4.40;;
68951;SDS011;56000;51.146;17.112;2023-04-25T06:34:17;6.90;;;3.90;;
68951;SDS011;56000;51.146;17.112;2023-04-25T06:36:50;7.70;;;4.00;;
68951;SDS011;56000;51.146;17.112;2023-04-25T06:39:23;7.00;;;3.80;;
68951;SDS011;56000;51.146;17.112;2023-04-25T06:41:57;6.60;;;4.00;;
68951;SDS011;56000;51.146;17.112;2023-04-25T06:44:43;6.20;;;3.80;;
68951;SDS011;56000;51.146;17.112;2023-04-25T06:47:16;7.30;;;3.40;;
68951;SDS011;56000;51.146;17.112;2023-04-25T06:49:50;7.30;;;3.80;;
68951;SDS011;56000;51.146;17.112;2023-04-25T06:52:24;7.60;;;3.60;;
68951;SDS011;56000;51.146;17.112;2023-04-25T06:54:57;6.40;;;3.50;;
68951;SDS011;56000;51.146;17.112;2023-04-25T06:57:39;6.30;;;3.40;;
68951;SDS011;56000;51.146;17.112;2023-04-25T07:00:33;5.70;;;2.80;;
68951;SDS011;56000;51.146;17.112;2023-04-25T07:03:06;8.90;;;3.70;;
68951;SDS011;56000;51.146;17.112;2023-04-25T07:05:39;7.60;;;3.00;;
68951;SDS011;56000;51.146;17.112;2023-04-25T07:08:13;5.30;;;3.10;;
68951;SDS011;56000;51.146;17.112;2023-04-25T07:10:46;7.60;;;3.40;;
68951;SDS011;56000;51.146;17.112;2023-04-25T07:13:19;6.10;;;3.70;;
68951;SDS011;56000;51.146;17.112;2023-04-25T07:15:53;8.40;;;3.50;;
68951;SDS011;56000;51.146;17.112;2023-04-25T07:18:27;9.70;;;3.60;;
68951;SDS011;56000;51.146;17.112;2023-04-25T07:21:01;5.70;;;3.30;;
68951;SDS011;56000;51.146;17.112;2023-04-25T07:23:35;4.90;;;3.00;;
68951;SDS011;56000;51.146;17.112;2023-04-25T07:26:13;4.40;;;3.00;;
68951;SDS011;56000;51.146;17.112;2023-04-25T07:29:06;6.90;;;3.10;;
68951;SDS011;56000;51.146;17.112;2023-04-25T07:31:39;6.70;;;3.40;;
68951;SDS011;56000;51.146;17.112;2023-04-25T07:34:12;7.10;;;2.70;;
68951;SDS011;56000;51.146;17.112;2023-04-25T07:36:46;6.40;;;2.90;;
68951;SDS011;56000;51.146;17.112;2023-04-25T07:39:19;7.20;;;3.10;;
68951;SDS011;56000;51.146;17.112;2023-04-25T07:41:53;5.10;;;2.50;;
68951;SDS011;56000;51.146;17.112;2023-04-25T07:44:32;6.60;;;3.10;;
68951;SDS011;56000;51.146;17.112;2023-04-25T07:47:09;6.40;;;2.70;;
68951;SDS011;56000;51.146;17.112;2023-04-25T07:49:43;7.70;;;2.90;;
68951;SDS011;56000;51.146;17.112;2023-04-25T07:52:16;8.90;;;3.30;;
68951;SDS011;56000;51.146;17.112;2023-04-25T07:54:54;10.40;;;3.80;;
68951;SDS011;56000;51.146;17.112;2023-04-25T07:57:34;7.30;;;3.10;;
68951;SDS011;56000;51.146;17.112;2023-04-25T08:00:10;7.20;;;3.50;;
68951;SDS011;56000;51.146;17.112;2023-04-25T08:02:48;8.60;;;3.00;;
68951;SDS011;56000;51.146;17.112;2023-04-25T08:05:22;7.10;;;3.20;;
68951;SDS011;56000;51.146;17.112;2023-04-25T08:08:01;5.60;;;2.90;;
68951;SDS011;56000;51.146;17.112;2023-04-25T08:10:36;7.10;;;3.50;;
68951;SDS011;56000;51.146;17.112;2023-04-25T08:13:09;5.90;;;3.00;;
68951;SDS011;56000;51.146;17.112;2023-04-25T08:15:43;4.80;;;3.50;;
68951;SDS011;56000;51.146;17.112;2023-04-25T08:18:16;7.90;;;3.50;;
68951;SDS011;56000;51.146;17.112;2023-04-25T08:20:50;9.20;;;3.50;;
68951;SDS011;56000;51.146;17.112;2023-04-25T08:23:23;6.60;;;3.20;;
68951;SDS011;56000;51.146;17.112;2023-04-25T08:26:05;11.20;;;4.10;;
68951;SDS011;56000;51.146;17.112;2023-04-25T08:28:40;7.00;;;5.10;;
68951;SDS011;56000;51.146;17.112;2023-04-25T08:31:13;11.40;;;4.60;;
68951;SDS011;56000;51.146;17.112;2023-04-25T08:33:54;8.10;;;5.00;;
68951;SDS011;56000;51.146;17.112;2023-04-25T08:36:40;9.60;;;4.90;;
68951;SDS011;56000;51.146;17.112;2023-04-25T08:39:22;7.30;;;4.40;;
68951;SDS011;56000;51.146;17.112;2023-04-25T08:42:30;8.90;;;4.70;;
68951;SDS011;56000;51.146;17.112;2023-04-25T08:45:06;9.20;;;4.80;;
68951;SDS011;56000;51.146;17.112;2023-04-25T08:47:41;8.60;;;4.60;;
68951;SDS011;56000;51.146;17.112;2023-04-25T08:50:18;8.00;;;4.70;;
68951;SDS011;56000;51.146;17.112;2023-04-25T08:52:54;8.10;;;4.20;;
68951;SDS011;56000;51.146;17.112;2023-04-25T08:55:35;9.40;;;4.60;;
68951;SDS011;56000;51.146;17.112;2023-04-25T08:58:12;8.60;;;4.60;;
68951;SDS011;56000;51.146;17.112;2023-04-25T09:00:47;8.00;;;3.90;;
68951;SDS011;56000;51.146;17.112;2023-04-25T09:03:22;9.10;;;4.10;;
68951;SDS011;56000;51.146;17.112;2023-04-25T09:05:58;6.60;;;3.80;;
68951;SDS011;56000;51.146;17.112;2023-04-25T09:08:39;5.40;;;4.00;;
68951;SDS011;56000;51.146;17.112;2023-04-25T09:11:13;7.30;;;4.50;;
68951;SDS011;56000;51.146;17.112;2023-04-25T09:13:47;7.70;;;4.10;;
68951;SDS011;56000;51.146;17.112;2023-04-25T09:16:25;10.00;;;4.20;;
68951;SDS011;56000;51.146;17.112;2023-04-25T09:19:24;8.50;;;4.10;;
68951;SDS011;56000;51.146;17.112;2023-04-25T09:22:52;5.40;;;3.80;;
68951;SDS011;56000;51.146;17.112;2023-04-25T09:26:41;6.80;;;3.90;;
68951;SDS011;56000;51.146;17.112;2023-04-25T09:29:14;9.00;;;4.50;;
68951;SDS011;56000;51.146;17.112;2023-04-25T09:31:48;10.80;;;4.50;;
68951;SDS011;56000;51.146;17.112;2023-04-25T09:34:21;7.10;;;4.40;;
68951;SDS011;56000;51.146;17.112;2023-04-25T09:36:57;7.30;;;4.10;;
68951;SDS011;56000;51.146;17.112;2023-04-25T09:39:55;11.00;;;4.00;;
68951;SDS011;56000;51.146;17.112;2023-04-25T09:42:31;7.60;;;4.30;;
68951;SDS011;56000;51.146;17.112;2023-04-25T09:45:07;6.40;;;4.30;;
68951;SDS011;56000;51.146;17.112;2023-04-25T09:47:44;9.20;;;4.70;;
68951;SDS011;56000;51.146;17.112;2023-04-25T09:50:18;9.00;;;4.20;;
68951;SDS011;56000;51.146;17.112;2023-04-25T09:53:05;8.90;;;4.30;;
68951;SDS011;56000;51.146;17.112;2023-04-25T09:56:07;5.60;;;3.90;;
68951;SDS011;56000;51.146;17.112;2023-04-25T09:58:41;6.00;;;4.10;;
68951;SDS011;56000;51.146;17.112;2023-04-25T10:01:15;6.00;;;4.10;;
68951;SDS011;56000;51.146;17.112;2023-04-25T10:03:58;6.00;;;3.80;;
68951;SDS011;56000;51.146;17.112;2023-04-25T10:06:43;5.50;;;3.60;;
68951;SDS011;56000;51.146;17.112;2023-04-25T10:09:17;5.40;;;3.40;;
68951;SDS011;56000;51.146;17.112;2023-04-25T10:11:52;6.10;;;3.10;;
68951;SDS011;56000;51.146;17.112;2023-04-25T10:14:26;9.30;;;3.20;;
68951;SDS011;56000;51.146;17.112;2023-04-25T10:17:00;4.20;;;3.10;;
68951;SDS011;56000;51.146;17.112;2023-04-25T10:19:33;4.40;;;2.70;;
68951;SDS011;56000;51.146;17.112;2023-04-25T10:22:11;5.90;;;3.20;;
68951;SDS011;56000;51.146;17.112;2023-04-25T10:24:48;6.40;;;3.10;;
68951;SDS011;56000;51.146;17.112;2023-04-25T10:27:22;5.00;;;2.70;;
68951;SDS011;56000;51.146;17.112;2023-04-25T10:30:05;6.10;;;3.50;;
68951;SDS011;56000;51.146;17.112;2023-04-25T10:32:42;6.70;;;2.80;;
68951;SDS011;56000;51.146;17.112;2023-04-25T10:35:18;3.90;;;2.70;;
68951;SDS011;56000;51.146;17.112;2023-04-25T10:38:13;5.30;;;2.10;;
68951;SDS011;56000;51.146;17.112;2023-04-25T10:41:03;5.70;;;2.70;;
68951;SDS011;56000;51.146;17.112;2023-04-25T10:43:40;5.70;;;2.40;;
68951;SDS011;56000;51.146;17.112;2023-04-25T10:46:18;5.40;;;2.90;;
68951;SDS011;56000;51.146;17.112;2023-04-25T10:48:54;6.20;;;2.40;;
68951;SDS011;56000;51.146;17.112;2023-04-25T10:51:29;5.10;;;2.80;;
68951;SDS011;56000;51.146;17.112;2023-04-25T10:54:23;7.00;;;3.00;;
68951;SDS011;56000;51.146;17.112;2023-04-25T10:56:58;6.20;;;2.90;;
68951;SDS011;56000;51.146;17.112;2023-04-25T10:59:31;4.20;;;2.80;;
68951;SDS011;56000;51.146;17.112;2023-04-25T11:02:12;4.70;;;2.40;;
68951;SDS011;56000;51.146;17.112;2023-04-25T11:04:45;4.80;;;2.40;;
68951;SDS011;56000;51.146;17.112;2023-04-25T11:07:26;5.30;;;2.40;;
68951;SDS011;56000;51.146;17.112;2023-04-25T11:10:06;5.60;;;2.70;;
68951;SDS011;56000;51.146;17.112;2023-04-25T11:12:39;6.30;;;2.70;;
68951;SDS011;56000;51.146;17.112;2023-04-25T11:15:12;4.60;;;2.20;;
68951;SDS011;56000;51.146;17.112;2023-04-25T11:17:46;4.70;;;2.40;;
68951;SDS011;56000;51.146;17.112;2023-04-25T11:20:21;4.50;;;2.70;;
68951;SDS011;56000;51.146;17.112;2023-04-25T11:23:00;4.40;;;2.70;;
68951;SDS011;56000;51.146;17.112;2023-04-25T11:25:38;3.00;;;2.40;;
68951;SDS011;56000;51.146;17.112;2023-04-25T11:28:11;5.10;;;2.90;;
68951;SDS011;56000;51.146;17.112;2023-04-25T11:30:52;4.60;;;2.50;;
68951;SDS011;56000;51.146;17.112;2023-04-25T11:33:26;4.30;;;2.50;;
68951;SDS011;56000;51.146;17.112;2023-04-25T11:36:00;6.00;;;3.20;;
68951;SDS011;56000;51.146;17.112;2023-04-25T11:38:33;3.40;;;2.20;;
68951;SDS011;56000;51.146;17.112;2023-04-25T11:41:07;2.30;;;1.60;;
68951;SDS011;56000;51.146;17.112;2023-04-25T11:43:40;4.40;;;2.00;;
68951;SDS011;56000;51.146;17.112;2023-04-25T11:46:14;4.70;;;1.80;;
68951;SDS011;56000;51.146;17.112;2023-04-25T11:48:47;2.10;;;1.50;;
68951;SDS011;56000;51.146;17.112;2023-04-25T11:51:21;6.50;;;1.50;;
68951;SDS011;56000;51.146;17.112;2023-04-25T11:53:55;2.80;;;1.40;;
68951;SDS011;56000;51.146;17.112;2023-04-25T11:56:28;4.50;;;1.70;;
68951;SDS011;56000;51.146;17.112;2023-04-25T11:59:03;2.90;;;1.60;;
68951;SDS011;56000;51.146;17.112;2023-04-25T12:01:38;1.50;;;1.30;;
68951;SDS011;56000;51.146;17.112;2023-04-25T12:04:15;4.00;;;1.60;;
68951;SDS011;56000;51.146;17.112;2023-04-25T12:06:50;4.90;;;1.70;;
68951;SDS011;56000;51.146;17.112;2023-04-25T12:09:29;3.40;;;1.60;;
68951;SDS011;56000;51.146;17.112;2023-04-25T12:12:03;2.20;;;1.60;;
68951;SDS011;56000;51.146;17.112;2023-04-25T12:14:40;3.50;;;1.70;;
68951;SDS011;56000;51.146;17.112;2023-04-25T12:17:19;2.30;;;1.70;;
68951;SDS011;56000;51.146;17.112;2023-04-25T12:19:53;3.40;;;1.70;;
68951;SDS011;56000;51.146;17.112;2023-04-25T12:22:27;2.60;;;1.80;;
68951;SDS011;56000;51.146;17.112;2023-04-25T12:25:01;2.20;;;1.60;;
68951;SDS011;56000;51.146;17.112;2023-04-25T12:27:35;5.80;;;1.90;;
68951;SDS011;56000;51.146;17.112;2023-04-25T12:30:12;3.70;;;1.70;;
68951;SDS011;56000;51.146;17.112;2023-04-25T12:32:45;1.80;;;1.40;;
68951;SDS011;56000;51.146;17.112;2023-04-25T12:35:19;4.30;;;2.20;;
68951;SDS011;56000;51.146;17.112;2023-04-25T12:37:52;7.10;;;1.80;;
68951;SDS011;56000;51.146;17.112;2023-04-25T12:40:26;6.00;;;2.10;;
68951;SDS011;56000;51.146;17.112;2023-04-25T12:42:59;3.30;;;1.70;;
68951;SDS011;56000;51.146;17.112;2023-04-25T12:45:33;1.70;;;1.50;;
68951;SDS011;56000;51.146;17.112;2023-04-25T12:48:06;2.70;;;1.50;;
68951;SDS011;56000;51.146;17.112;2023-04-25T12:50:40;4.20;;;1.70;;
68951;SDS011;56000;51.146;17.112;2023-04-25T12:53:13;4.70;;;1.80;;
68951;SDS011;56000;51.146;17.112;2023-04-25T12:55:46;4.40;;;2.10;;
68951;SDS011;56000;51.146;17.112;2023-04-25T12:58:20;3.60;;;2.00;;
68951;SDS011;56000;51.146;17.112;2023-04-25T13:00:54;5.60;;;2.00;;
68951;SDS011;56000;51.146;17.112;2023-04-25T13:03:28;5.40;;;2.00;;
68951;SDS011;56000;51.146;17.112;2023-04-25T13:06:02;4.20;;;1.90;;
68951;SDS011;56000;51.146;17.112;2023-04-25T13:08:35;3.20;;;1.80;;
68951;SDS011;56000;51.146;17.112;2023-04-25T13:11:08;2.90;;;1.80;;
68951;SDS011;56000;51.146;17.112;2023-04-25T13:13:43;3.80;;;1.70;;
68951;SDS011;56000;51.146;17.112;2023-04-25T13:16:16;5.40;;;2.00;;
68951;SDS011;56000;51.146;17.112;2023-04-25T13:18:51;4.20;;;1.90;;
68951;SDS011;56000;51.146;17.112;2023-04-25T13:21:26;2.40;;;1.50;;
68951;SDS011;56000;51.146;17.112;2023-04-25T13:24:02;3.90;;;2.10;;
68951;SDS011;56000;51.146;17.112;2023-04-25T13:26:36;4.70;;;2.40;;
68951;SDS011;56000;51.146;17.112;2023-04-25T13:29:09;5.20;;;2.10;;
68951;SDS011;56000;51.146;17.112;2023-04-25T13:31:42;3.30;;;1.70;;
68951;SDS011;56000;51.146;17.112;2023-04-25T13:34:15;4.30;;;2.40;;
68951;SDS011;56000;51.146;17.112;2023-04-25T13:36:48;3.50;;;2.20;;
68951;SDS011;56000;51.146;17.112;2023-04-25T13:39:21;3.70;;;2.30;;
68951;SDS011;56000;51.146;17.112;2023-04-25T13:41:57;5.90;;;2.30;;
68951;SDS011;56000;51.146;17.112;2023-04-25T13:44:32;3.50;;;2.70;;
68951;SDS011;56000;51.146;17.112;2023-04-25T13:47:05;3.10;;;1.90;;
68951;SDS011;56000;51.146;17.112;2023-04-25T13:49:39;4.20;;;2.00;;
68951;SDS011;56000;51.146;17.112;2023-04-25T13:52:12;4.20;;;1.80;;
68951;SDS011;56000;51.146;17.112;2023-04-25T13:54:45;3.60;;;1.90;;
68951;SDS011;56000;51.146;17.112;2023-04-25T13:57:19;3.00;;;1.60;;
68951;SDS011;56000;51.146;17.112;2023-04-25T13:59:52;2.20;;;1.60;;
68951;SDS011;56000;51.146;17.112;2023-04-25T14:02:25;4.80;;;1.90;;
68951;SDS011;56000;51.146;17.112;2023-04-25T14:04:59;4.30;;;1.90;;
68951;SDS011;56000;51.146;17.112;2023-04-25T14:07:34;6.80;;;2.00;;
68951;SDS011;56000;51.146;17.112;2023-04-25T14:10:08;4.20;;;1.70;;
68951;SDS011;56000;51.146;17.112;2023-04-25T14:12:42;4.50;;;1.80;;
68951;SDS011;56000;51.146;17.112;2023-04-25T14:15:15;3.00;;;1.40;;
68951;SDS011;56000;51.146;17.112;2023-04-25T14:17:49;2.20;;;1.30;;
68951;SDS011;56000;51.146;17.112;2023-04-25T14:20:22;3.70;;;1.60;;
68951;SDS011;56000;51.146;17.112;2023-04-25T14:22:56;3.70;;;1.70;;
68951;SDS011;56000;51.146;17.112;2023-04-25T14:25:30;3.60;;;1.50;;
68951;SDS011;56000;51.146;17.112;2023-04-25T14:28:04;2.00;;;1.50;;
68951;SDS011;56000;51.146;17.112;2023-04-25T14:30:37;5.10;;;1.90;;
68951;SDS011;56000;51.146;17.112;2023-04-25T14:33:10;2.70;;;1.50;;
68951;SDS011;56000;51.146;17.112;2023-04-25T14:35:44;3.60;;;1.80;;
68951;SDS011;56000;51.146;17.112;2023-04-25T14:38:17;3.30;;;1.90;;
68951;SDS011;56000;51.146;17.112;2023-04-25T14:40:53;5.10;;;2.10;;
68951;SDS011;56000;51.146;17.112;2023-04-25T14:43:26;3.80;;;2.50;;
68951;SDS011;56000;51.146;17.112;2023-04-25T14:46:00;16.50;;;10.10;;
68951;SDS011;56000;51.146;17.112;2023-04-25T14:48:33;17.60;;;11.10;;
68951;SDS011;56000;51.146;17.112;2023-04-25T14:51:07;3.30;;;2.40;;
68951;SDS011;56000;51.146;17.112;2023-04-25T14:53:41;2.20;;;1.90;;
68951;SDS011;56000;51.146;17.112;2023-04-25T14:56:15;4.30;;;2.10;;
68951;SDS011;56000;51.146;17.112;2023-04-25T14:58:48;2.40;;;1.90;;
68951;SDS011;56000;51.146;17.112;2023-04-25T15:01:21;3.30;;;1.70;;
68951;SDS011;56000;51.146;17.112;2023-04-25T15:03:55;5.00;;;2.30;;
68951;SDS011;56000;51.146;17.112;2023-04-25T15:06:29;9.30;;;5.40;;
68951;SDS011;56000;51.146;17.112;2023-04-25T15:09:03;8.60;;;4.80;;
68951;SDS011;56000;51.146;17.112;2023-04-25T15:11:37;18.10;;;8.90;;
68951;SDS011;56000;51.146;17.112;2023-04-25T15:14:10;4.50;;;2.10;;
68951;SDS011;56000;51.146;17.112;2023-04-25T15:16:43;7.00;;;1.80;;
68951;SDS011;56000;51.146;17.112;2023-04-25T15:19:16;1.90;;;1.50;;
68951;SDS011;56000;51.146;17.112;2023-04-25T15:21:50;3.00;;;1.80;;
68951;SDS011;56000;51.146;17.112;2023-04-25T15:24:23;5.00;;;2.00;;
68951;SDS011;56000;51.146;17.112;2023-04-25T15:26:56;8.20;;;2.70;;
68951;SDS011;56000;51.146;17.112;2023-04-25T15:29:29;5.30;;;2.30;;